sensor_id;sensor_type;location;lat;lon;timestamp;P1;durP1;ratioP1;P2;durP2;ratioP2
12631;SDS011;6381;45.748;12.106;2022-07-10T00:00:46;5.53;;;3.60;;
12631;SDS011;6381;45.748;12.106;2022-07-10T00:03:16;7.35;;;3.70;;
12631;SDS011;6381;45.748;12.106;2022-07-10T00:05:46;6.18;;;3.25;;
12631;SDS011;6381;45.748;12.106;2022-07-10T00:08:16;5.03;;;3.42;;
12631;SDS011;6381;45.748;12.106;2022-07-10T00:10:45;5.25;;;3.65;;
12631;SDS011;6381;45.748;12.106;2022-07-10T00:13:14;6.63;;;3.90;;
12631;SDS011;6381;45.748;12.106;2022-07-10T00:15:43;6.65;;;3.90;;
12631;SDS011;6381;45.748;12.106;2022-07-10T00:18:12;3.42;;;3.03;;
12631;SDS011;6381;45.748;12.106;2022-07-10T00:20:44;6.03;;;3.58;;
12631;SDS011;6381;45.748;12.106;2022-07-10T00:23:14;4.40;;;3.33;;
12631;SDS011;6381;45.748;12.106;2022-07-10T00:25:43;4.30;;;3.15;;
12631;SDS011;6381;45.748;12.106;2022-07-10T00:28:12;4.30;;;3.28;;
12631;SDS011;6381;45.748;12.106;2022-07-10T00:30:41;6.72;;;3.00;;
12631;SDS011;6381;45.748;12.106;2022-07-10T00:33:10;7.07;;;4.63;;
12631;SDS011;6381;45.748;12.106;2022-07-10T00:35:40;7.18;;;6.22;;
12631;SDS011;6381;45.748;12.106;2022-07-10T00:38:10;9.02;;;8.07;;
12631;SDS011;6381;45.748;12.106;2022-07-10T00:40:40;11.15;;;7.88;;
12631;SDS011;6381;45.748;12.106;2022-07-10T00:43:09;10.43;;;8.10;;
12631;SDS011;6381;45.748;12.106;2022-07-10T00:45:38;10.90;;;9.27;;
12631;SDS011;6381;45.748;12.106;2022-07-10T00:48:07;10.75;;;9.10;;
12631;SDS011;6381;45.748;12.106;2022-07-10T00:50:37;11.90;;;9.48;;
12631;SDS011;6381;45.748;12.106;2022-07-10T00:53:06;11.15;;;9.27;;
12631;SDS011;6381;45.748;12.106;2022-07-10T00:55:37;11.55;;;9.35;;
12631;SDS011;6381;45.748;12.106;2022-07-10T00:58:07;10.20;;;9.23;;
12631;SDS011;6381;45.748;12.106;2022-07-10T01:00:39;9.85;;;8.70;;
12631;SDS011;6381;45.748;12.106;2022-07-10T01:03:08;13.38;;;9.90;;
12631;SDS011;6381;45.748;12.106;2022-07-10T01:05:38;11.13;;;10.10;;
12631;SDS011;6381;45.748;12.106;2022-07-10T01:08:07;10.98;;;9.88;;
12631;SDS011;6381;45.748;12.106;2022-07-10T01:10:39;10.38;;;9.48;;
12631;SDS011;6381;45.748;12.106;2022-07-10T01:13:08;10.63;;;9.55;;
12631;SDS011;6381;45.748;12.106;2022-07-10T01:15:38;10.68;;;9.68;;
12631;SDS011;6381;45.748;12.106;2022-07-10T01:18:08;10.40;;;9.43;;
12631;SDS011;6381;45.748;12.106;2022-07-10T01:20:37;9.98;;;9.07;;
12631;SDS011;6381;45.748;12.106;2022-07-10T01:23:07;10.93;;;9.82;;
12631;SDS011;6381;45.748;12.106;2022-07-10T01:25:37;13.55;;;10.02;;
12631;SDS011;6381;45.748;12.106;2022-07-10T01:28:07;12.82;;;10.57;;
12631;SDS011;6381;45.748;12.106;2022-07-10T01:30:36;11.13;;;10.02;;
12631;SDS011;6381;45.748;12.106;2022-07-10T01:33:06;11.32;;;10.23;;
12631;SDS011;6381;45.748;12.106;2022-07-10T01:35:35;10.60;;;9.55;;
12631;SDS011;6381;45.748;12.106;2022-07-10T01:38:04;10.75;;;9.05;;
12631;SDS011;6381;45.748;12.106;2022-07-10T01:40:35;9.93;;;8.82;;
12631;SDS011;6381;45.748;12.106;2022-07-10T01:43:04;11.27;;;9.40;;
12631;SDS011;6381;45.748;12.106;2022-07-10T01:45:33;10.15;;;9.18;;
12631;SDS011;6381;45.748;12.106;2022-07-10T01:48:02;11.05;;;10.05;;
12631;SDS011;6381;45.748;12.106;2022-07-10T01:50:32;11.55;;;10.48;;
12631;SDS011;6381;45.748;12.106;2022-07-10T01:53:01;11.98;;;10.80;;
12631;SDS011;6381;45.748;12.106;2022-07-10T01:55:32;14.38;;;11.30;;
12631;SDS011;6381;45.748;12.106;2022-07-10T01:58:03;12.48;;;11.20;;
12631;SDS011;6381;45.748;12.106;2022-07-10T02:00:32;12.13;;;10.75;;
12631;SDS011;6381;45.748;12.106;2022-07-10T02:03:02;12.45;;;11.32;;
12631;SDS011;6381;45.748;12.106;2022-07-10T02:05:57;13.93;;;11.48;;
12631;SDS011;6381;45.748;12.106;2022-07-10T02:08:26;12.32;;;11.07;;
12631;SDS011;6381;45.748;12.106;2022-07-10T02:10:57;12.52;;;11.07;;
12631;SDS011;6381;45.748;12.106;2022-07-10T02:13:26;12.68;;;10.20;;
12631;SDS011;6381;45.748;12.106;2022-07-10T02:15:55;10.68;;;9.60;;
12631;SDS011;6381;45.748;12.106;2022-07-10T02:18:25;10.10;;;9.10;;
12631;SDS011;6381;45.748;12.106;2022-07-10T02:20:54;9.73;;;8.90;;
12631;SDS011;6381;45.748;12.106;2022-07-10T02:23:24;8.43;;;7.63;;
12631;SDS011;6381;45.748;12.106;2022-07-10T02:25:53;8.15;;;7.35;;
12631;SDS011;6381;45.748;12.106;2022-07-10T02:28:23;9.20;;;7.95;;
12631;SDS011;6381;45.748;12.106;2022-07-10T02:30:52;7.95;;;7.25;;
12631;SDS011;6381;45.748;12.106;2022-07-10T02:33:21;8.77;;;7.47;;
12631;SDS011;6381;45.748;12.106;2022-07-10T02:35:50;7.85;;;7.15;;
12631;SDS011;6381;45.748;12.106;2022-07-10T02:38:20;8.00;;;7.20;;
12631;SDS011;6381;45.748;12.106;2022-07-10T02:40:49;9.82;;;8.45;;
12631;SDS011;6381;45.748;12.106;2022-07-10T02:43:18;8.55;;;7.75;;
12631;SDS011;6381;45.748;12.106;2022-07-10T02:45:48;8.77;;;7.78;;
12631;SDS011;6381;45.748;12.106;2022-07-10T02:48:17;9.50;;;7.30;;
12631;SDS011;6381;45.748;12.106;2022-07-10T02:50:47;8.07;;;7.38;;
12631;SDS011;6381;45.748;12.106;2022-07-10T02:53:16;8.10;;;7.20;;
12631;SDS011;6381;45.748;12.106;2022-07-10T02:55:45;7.32;;;6.55;;
12631;SDS011;6381;45.748;12.106;2022-07-10T02:58:14;6.20;;;5.60;;
12631;SDS011;6381;45.748;12.106;2022-07-10T03:00:44;6.00;;;5.50;;
12631;SDS011;6381;45.748;12.106;2022-07-10T03:03:15;6.93;;;6.00;;
12631;SDS011;6381;45.748;12.106;2022-07-10T03:05:45;7.57;;;6.85;;
12631;SDS011;6381;45.748;12.106;2022-07-10T03:08:14;6.88;;;6.28;;
12631;SDS011;6381;45.748;12.106;2022-07-10T03:10:43;7.22;;;6.35;;
12631;SDS011;6381;45.748;12.106;2022-07-10T03:13:12;7.05;;;6.30;;
12631;SDS011;6381;45.748;12.106;2022-07-10T03:15:41;8.23;;;6.38;;
12631;SDS011;6381;45.748;12.106;2022-07-10T03:18:10;6.88;;;6.18;;
12631;SDS011;6381;45.748;12.106;2022-07-10T03:20:41;6.03;;;5.38;;
12631;SDS011;6381;45.748;12.106;2022-07-10T03:23:11;6.70;;;5.90;;
12631;SDS011;6381;45.748;12.106;2022-07-10T03:25:41;5.85;;;5.35;;
12631;SDS011;6381;45.748;12.106;2022-07-10T03:28:10;6.30;;;4.95;;
12631;SDS011;6381;45.748;12.106;2022-07-10T03:30:39;5.70;;;5.20;;
12631;SDS011;6381;45.748;12.106;2022-07-10T03:33:08;6.25;;;5.40;;
12631;SDS011;6381;45.748;12.106;2022-07-10T03:35:37;5.90;;;5.30;;
12631;SDS011;6381;45.748;12.106;2022-07-10T03:38:08;7.15;;;5.35;;
12631;SDS011;6381;45.748;12.106;2022-07-10T03:40:37;6.50;;;4.82;;
12631;SDS011;6381;45.748;12.106;2022-07-10T03:43:06;5.60;;;4.85;;
12631;SDS011;6381;45.748;12.106;2022-07-10T03:45:35;4.95;;;4.45;;
12631;SDS011;6381;45.748;12.106;2022-07-10T03:48:04;5.80;;;4.90;;
12631;SDS011;6381;45.748;12.106;2022-07-10T03:50:34;6.68;;;4.47;;
12631;SDS011;6381;45.748;12.106;2022-07-10T03:53:03;5.28;;;4.22;;
12631;SDS011;6381;45.748;12.106;2022-07-10T03:55:33;4.80;;;3.90;;
12631;SDS011;6381;45.748;12.106;2022-07-10T03:58:02;6.30;;;4.50;;
12631;SDS011;6381;45.748;12.106;2022-07-10T04:00:31;5.25;;;3.88;;
12631;SDS011;6381;45.748;12.106;2022-07-10T04:03:02;3.97;;;3.55;;
12631;SDS011;6381;45.748;12.106;2022-07-10T04:05:33;5.82;;;4.10;;
12631;SDS011;6381;45.748;12.106;2022-07-10T04:08:03;5.22;;;4.38;;
12631;SDS011;6381;45.748;12.106;2022-07-10T04:10:34;5.22;;;3.85;;
12631;SDS011;6381;45.748;12.106;2022-07-10T04:13:04;4.95;;;3.90;;
12631;SDS011;6381;45.748;12.106;2022-07-10T04:15:33;6.60;;;3.95;;
12631;SDS011;6381;45.748;12.106;2022-07-10T04:18:02;5.38;;;3.25;;
12631;SDS011;6381;45.748;12.106;2022-07-10T04:20:31;5.18;;;3.80;;
12631;SDS011;6381;45.748;12.106;2022-07-10T04:23:00;4.65;;;3.50;;
12631;SDS011;6381;45.748;12.106;2022-07-10T04:25:33;4.32;;;3.17;;
12631;SDS011;6381;45.748;12.106;2022-07-10T04:28:02;3.50;;;3.20;;
12631;SDS011;6381;45.748;12.106;2022-07-10T04:30:32;3.70;;;3.25;;
12631;SDS011;6381;45.748;12.106;2022-07-10T04:33:01;5.63;;;3.55;;
12631;SDS011;6381;45.748;12.106;2022-07-10T04:35:31;3.78;;;3.08;;
12631;SDS011;6381;45.748;12.106;2022-07-10T04:38:00;3.25;;;2.95;;
12631;SDS011;6381;45.748;12.106;2022-07-10T04:40:29;3.67;;;3.20;;
12631;SDS011;6381;45.748;12.106;2022-07-10T04:42:59;5.95;;;3.40;;
12631;SDS011;6381;45.748;12.106;2022-07-10T04:45:28;6.45;;;2.88;;
12631;SDS011;6381;45.748;12.106;2022-07-10T04:47:57;5.20;;;2.70;;
12631;SDS011;6381;45.748;12.106;2022-07-10T04:50:26;3.70;;;2.80;;
12631;SDS011;6381;45.748;12.106;2022-07-10T04:52:56;3.58;;;2.65;;
12631;SDS011;6381;45.748;12.106;2022-07-10T04:55:25;3.72;;;3.17;;
12631;SDS011;6381;45.748;12.106;2022-07-10T04:57:54;5.80;;;3.28;;
12631;SDS011;6381;45.748;12.106;2022-07-10T05:00:25;4.55;;;2.70;;
12631;SDS011;6381;45.748;12.106;2022-07-10T05:02:55;4.05;;;2.75;;
12631;SDS011;6381;45.748;12.106;2022-07-10T05:05:24;4.97;;;2.75;;
12631;SDS011;6381;45.748;12.106;2022-07-10T05:07:53;3.22;;;2.80;;
12631;SDS011;6381;45.748;12.106;2022-07-10T05:10:22;5.05;;;2.72;;
12631;SDS011;6381;45.748;12.106;2022-07-10T05:12:51;3.67;;;2.58;;
12631;SDS011;6381;45.748;12.106;2022-07-10T05:15:21;5.90;;;3.33;;
12631;SDS011;6381;45.748;12.106;2022-07-10T05:17:52;4.72;;;2.95;;
12631;SDS011;6381;45.748;12.106;2022-07-10T05:20:21;3.28;;;2.95;;
12631;SDS011;6381;45.748;12.106;2022-07-10T05:22:51;7.72;;;3.47;;
12631;SDS011;6381;45.748;12.106;2022-07-10T05:25:20;6.10;;;3.45;;
12631;SDS011;6381;45.748;12.106;2022-07-10T05:27:49;5.65;;;3.38;;
12631;SDS011;6381;45.748;12.106;2022-07-10T05:30:18;4.90;;;3.25;;
12631;SDS011;6381;45.748;12.106;2022-07-10T05:32:47;5.80;;;3.25;;
12631;SDS011;6381;45.748;12.106;2022-07-10T05:35:18;3.95;;;3.08;;
12631;SDS011;6381;45.748;12.106;2022-07-10T05:37:47;4.78;;;3.08;;
12631;SDS011;6381;45.748;12.106;2022-07-10T05:40:17;4.72;;;3.20;;
12631;SDS011;6381;45.748;12.106;2022-07-10T05:42:46;4.47;;;3.22;;
12631;SDS011;6381;45.748;12.106;2022-07-10T05:45:15;5.85;;;3.53;;
12631;SDS011;6381;45.748;12.106;2022-07-10T05:47:45;6.32;;;3.30;;
12631;SDS011;6381;45.748;12.106;2022-07-10T05:50:14;6.32;;;3.05;;
12631;SDS011;6381;45.748;12.106;2022-07-10T05:52:45;7.40;;;3.50;;
12631;SDS011;6381;45.748;12.106;2022-07-10T05:55:15;6.22;;;3.67;;
12631;SDS011;6381;45.748;12.106;2022-07-10T05:57:44;3.50;;;3.20;;
12631;SDS011;6381;45.748;12.106;2022-07-10T06:00:13;4.50;;;3.22;;
12631;SDS011;6381;45.748;12.106;2022-07-10T06:02:42;3.88;;;2.97;;
12631;SDS011;6381;45.748;12.106;2022-07-10T06:05:11;3.80;;;2.83;;
12631;SDS011;6381;45.748;12.106;2022-07-10T06:07:41;3.40;;;2.72;;
12631;SDS011;6381;45.748;12.106;2022-07-10T06:10:11;6.85;;;3.53;;
12631;SDS011;6381;45.748;12.106;2022-07-10T06:12:41;4.63;;;3.00;;
12631;SDS011;6381;45.748;12.106;2022-07-10T06:15:10;4.60;;;3.00;;
12631;SDS011;6381;45.748;12.106;2022-07-10T06:17:44;3.40;;;3.10;;
12631;SDS011;6381;45.748;12.106;2022-07-10T06:20:14;4.93;;;3.45;;
12631;SDS011;6381;45.748;12.106;2022-07-10T06:22:43;7.18;;;3.47;;
12631;SDS011;6381;45.748;12.106;2022-07-10T06:25:14;3.22;;;2.92;;
12631;SDS011;6381;45.748;12.106;2022-07-10T06:27:43;4.72;;;2.72;;
12631;SDS011;6381;45.748;12.106;2022-07-10T06:30:12;4.07;;;2.70;;
12631;SDS011;6381;45.748;12.106;2022-07-10T06:32:41;4.88;;;3.67;;
12631;SDS011;6381;45.748;12.106;2022-07-10T06:35:11;5.43;;;3.10;;
12631;SDS011;6381;45.748;12.106;2022-07-10T06:37:40;3.30;;;2.90;;
12631;SDS011;6381;45.748;12.106;2022-07-10T06:40:10;4.53;;;3.40;;
12631;SDS011;6381;45.748;12.106;2022-07-10T06:42:42;3.85;;;3.28;;
12631;SDS011;6381;45.748;12.106;2022-07-10T06:45:12;3.35;;;2.65;;
12631;SDS011;6381;45.748;12.106;2022-07-10T06:47:41;4.43;;;2.97;;
12631;SDS011;6381;45.748;12.106;2022-07-10T06:50:26;3.20;;;2.22;;
12631;SDS011;6381;45.748;12.106;2022-07-10T06:52:59;5.50;;;2.70;;
12631;SDS011;6381;45.748;12.106;2022-07-10T06:55:29;3.22;;;2.00;;
12631;SDS011;6381;45.748;12.106;2022-07-10T06:58:02;8.07;;;2.88;;
12631;SDS011;6381;45.748;12.106;2022-07-10T07:00:31;3.35;;;2.33;;
12631;SDS011;6381;45.748;12.106;2022-07-10T07:03:00;4.45;;;2.20;;
12631;SDS011;6381;45.748;12.106;2022-07-10T07:05:30;4.25;;;2.10;;
12631;SDS011;6381;45.748;12.106;2022-07-10T07:08:00;2.63;;;1.95;;
12631;SDS011;6381;45.748;12.106;2022-07-10T07:10:29;2.35;;;2.10;;
12631;SDS011;6381;45.748;12.106;2022-07-10T07:12:58;4.43;;;2.50;;
12631;SDS011;6381;45.748;12.106;2022-07-10T07:15:31;4.57;;;2.10;;
12631;SDS011;6381;45.748;12.106;2022-07-10T07:18:05;2.20;;;1.90;;
12631;SDS011;6381;45.748;12.106;2022-07-10T07:20:39;1.88;;;1.58;;
12631;SDS011;6381;45.748;12.106;2022-07-10T07:23:25;3.58;;;2.10;;
12631;SDS011;6381;45.748;12.106;2022-07-10T07:25:55;4.90;;;2.20;;
12631;SDS011;6381;45.748;12.106;2022-07-10T07:28:24;2.35;;;1.83;;
12631;SDS011;6381;45.748;12.106;2022-07-10T07:30:54;2.97;;;1.90;;
12631;SDS011;6381;45.748;12.106;2022-07-10T07:33:26;2.38;;;1.70;;
12631;SDS011;6381;45.748;12.106;2022-07-10T07:35:55;3.65;;;2.05;;
12631;SDS011;6381;45.748;12.106;2022-07-10T07:38:24;3.58;;;2.38;;
12631;SDS011;6381;45.748;12.106;2022-07-10T07:40:53;3.63;;;2.30;;
12631;SDS011;6381;45.748;12.106;2022-07-10T07:43:23;2.60;;;2.13;;
12631;SDS011;6381;45.748;12.106;2022-07-10T07:45:52;2.35;;;2.15;;
12631;SDS011;6381;45.748;12.106;2022-07-10T07:48:22;4.40;;;2.20;;
12631;SDS011;6381;45.748;12.106;2022-07-10T07:50:51;2.63;;;2.33;;
12631;SDS011;6381;45.748;12.106;2022-07-10T07:53:20;2.85;;;2.20;;
12631;SDS011;6381;45.748;12.106;2022-07-10T07:55:50;3.28;;;2.30;;
12631;SDS011;6381;45.748;12.106;2022-07-10T07:58:19;3.40;;;2.20;;
12631;SDS011;6381;45.748;12.106;2022-07-10T08:00:48;2.97;;;2.30;;
12631;SDS011;6381;45.748;12.106;2022-07-10T08:03:17;2.42;;;1.90;;
12631;SDS011;6381;45.748;12.106;2022-07-10T08:05:55;3.53;;;1.80;;
12631;SDS011;6381;45.748;12.106;2022-07-10T08:08:24;2.47;;;1.85;;
12631;SDS011;6381;45.748;12.106;2022-07-10T08:10:53;2.22;;;2.00;;
12631;SDS011;6381;45.748;12.106;2022-07-10T08:13:23;3.03;;;2.17;;
12631;SDS011;6381;45.748;12.106;2022-07-10T08:15:52;2.80;;;1.90;;
12631;SDS011;6381;45.748;12.106;2022-07-10T08:18:26;3.30;;;1.77;;
12631;SDS011;6381;45.748;12.106;2022-07-10T08:20:57;5.78;;;2.30;;
12631;SDS011;6381;45.748;12.106;2022-07-10T08:23:26;3.25;;;2.10;;
12631;SDS011;6381;45.748;12.106;2022-07-10T08:25:55;4.85;;;2.42;;
12631;SDS011;6381;45.748;12.106;2022-07-10T08:28:24;2.72;;;2.15;;
12631;SDS011;6381;45.748;12.106;2022-07-10T08:30:53;3.67;;;2.20;;
12631;SDS011;6381;45.748;12.106;2022-07-10T08:33:22;3.33;;;2.00;;
12631;SDS011;6381;45.748;12.106;2022-07-10T08:35:52;8.10;;;2.20;;
12631;SDS011;6381;45.748;12.106;2022-07-10T08:38:47;3.25;;;1.95;;
12631;SDS011;6381;45.748;12.106;2022-07-10T08:41:16;4.95;;;3.55;;
12631;SDS011;6381;45.748;12.106;2022-07-10T08:43:49;4.20;;;2.40;;
12631;SDS011;6381;45.748;12.106;2022-07-10T08:46:18;4.13;;;1.90;;
12631;SDS011;6381;45.748;12.106;2022-07-10T08:48:48;3.35;;;1.80;;
12631;SDS011;6381;45.748;12.106;2022-07-10T08:51:23;2.38;;;1.98;;
12631;SDS011;6381;45.748;12.106;2022-07-10T08:54:05;3.40;;;2.17;;
12631;SDS011;6381;45.748;12.106;2022-07-10T08:56:36;2.35;;;2.08;;
12631;SDS011;6381;45.748;12.106;2022-07-10T08:59:05;3.10;;;1.95;;
12631;SDS011;6381;45.748;12.106;2022-07-10T09:01:36;3.63;;;2.00;;
12631;SDS011;6381;45.748;12.106;2022-07-10T09:04:05;3.22;;;2.22;;
12631;SDS011;6381;45.748;12.106;2022-07-10T09:06:35;3.00;;;2.05;;
12631;SDS011;6381;45.748;12.106;2022-07-10T09:09:05;7.78;;;2.15;;
12631;SDS011;6381;45.748;12.106;2022-07-10T09:11:35;4.93;;;2.35;;
12631;SDS011;6381;45.748;12.106;2022-07-10T09:14:05;3.22;;;2.00;;
12631;SDS011;6381;45.748;12.106;2022-07-10T09:16:36;2.03;;;1.83;;
12631;SDS011;6381;45.748;12.106;2022-07-10T09:19:16;2.60;;;1.80;;
12631;SDS011;6381;45.748;12.106;2022-07-10T09:21:48;1.90;;;1.80;;
12631;SDS011;6381;45.748;12.106;2022-07-10T09:24:19;6.57;;;2.55;;
12631;SDS011;6381;45.748;12.106;2022-07-10T09:26:57;3.42;;;2.00;;
12631;SDS011;6381;45.748;12.106;2022-07-10T09:29:30;2.92;;;1.75;;
12631;SDS011;6381;45.748;12.106;2022-07-10T09:32:00;2.80;;;2.05;;
12631;SDS011;6381;45.748;12.106;2022-07-10T09:34:37;6.90;;;3.15;;
12631;SDS011;6381;45.748;12.106;2022-07-10T09:37:20;2.95;;;1.60;;
12631;SDS011;6381;45.748;12.106;2022-07-10T09:39:55;2.80;;;1.83;;
12631;SDS011;6381;45.748;12.106;2022-07-10T09:42:26;3.03;;;1.95;;
12631;SDS011;6381;45.748;12.106;2022-07-10T09:45:12;2.10;;;1.90;;
12631;SDS011;6381;45.748;12.106;2022-07-10T09:47:53;2.88;;;1.83;;
12631;SDS011;6381;45.748;12.106;2022-07-10T09:50:24;2.03;;;1.83;;
12631;SDS011;6381;45.748;12.106;2022-07-10T09:52:55;3.55;;;1.70;;
12631;SDS011;6381;45.748;12.106;2022-07-10T09:55:27;7.20;;;4.43;;
12631;SDS011;6381;45.748;12.106;2022-07-10T09:57:58;4.53;;;1.90;;
12631;SDS011;6381;45.748;12.106;2022-07-10T10:00:28;4.03;;;1.70;;
12631;SDS011;6381;45.748;12.106;2022-07-10T10:02:59;3.30;;;1.70;;
12631;SDS011;6381;45.748;12.106;2022-07-10T10:05:33;3.75;;;1.80;;
12631;SDS011;6381;45.748;12.106;2022-07-10T10:08:08;7.93;;;1.80;;
12631;SDS011;6381;45.748;12.106;2022-07-10T10:10:43;4.95;;;1.90;;
12631;SDS011;6381;45.748;12.106;2022-07-10T10:13:15;4.38;;;1.73;;
12631;SDS011;6381;45.748;12.106;2022-07-10T10:15:46;3.58;;;1.80;;
12631;SDS011;6381;45.748;12.106;2022-07-10T10:18:17;3.80;;;2.15;;
12631;SDS011;6381;45.748;12.106;2022-07-10T10:20:47;5.55;;;1.70;;
12631;SDS011;6381;45.748;12.106;2022-07-10T10:23:16;3.47;;;1.70;;
12631;SDS011;6381;45.748;12.106;2022-07-10T10:25:49;2.60;;;1.73;;
12631;SDS011;6381;45.748;12.106;2022-07-10T10:28:21;2.22;;;1.92;;
12631;SDS011;6381;45.748;12.106;2022-07-10T10:30:51;2.75;;;1.90;;
12631;SDS011;6381;45.748;12.106;2022-07-10T10:36:43;3.38;;;1.77;;
12631;SDS011;6381;45.748;12.106;2022-07-10T10:39:17;3.75;;;1.60;;
12631;SDS011;6381;45.748;12.106;2022-07-10T10:41:49;3.78;;;1.80;;
12631;SDS011;6381;45.748;12.106;2022-07-10T10:44:20;1.83;;;1.50;;
12631;SDS011;6381;45.748;12.106;2022-07-10T10:47:01;1.92;;;1.60;;
12631;SDS011;6381;45.748;12.106;2022-07-10T10:49:47;2.67;;;1.80;;
12631;SDS011;6381;45.748;12.106;2022-07-10T10:52:18;2.08;;;1.55;;
12631;SDS011;6381;45.748;12.106;2022-07-10T10:55:07;3.38;;;1.40;;
12631;SDS011;6381;45.748;12.106;2022-07-10T10:57:40;1.73;;;1.33;;
12631;SDS011;6381;45.748;12.106;2022-07-10T11:00:34;1.92;;;1.60;;
12631;SDS011;6381;45.748;12.106;2022-07-10T11:03:13;3.08;;;1.70;;
12631;SDS011;6381;45.748;12.106;2022-07-10T11:05:48;2.28;;;1.42;;
12631;SDS011;6381;45.748;12.106;2022-07-10T11:08:38;2.53;;;1.42;;
12631;SDS011;6381;45.748;12.106;2022-07-10T11:14:16;2.75;;;1.70;;
12631;SDS011;6381;45.748;12.106;2022-07-10T11:16:46;1.70;;;1.60;;
12631;SDS011;6381;45.748;12.106;2022-07-10T11:19:29;3.45;;;1.77;;
12631;SDS011;6381;45.748;12.106;2022-07-10T11:22:06;3.35;;;1.60;;
12631;SDS011;6381;45.748;12.106;2022-07-10T11:24:52;3.13;;;1.80;;
12631;SDS011;6381;45.748;12.106;2022-07-10T11:27:35;3.25;;;1.83;;
12631;SDS011;6381;45.748;12.106;2022-07-10T11:30:21;3.58;;;1.50;;
12631;SDS011;6381;45.748;12.106;2022-07-10T11:32:50;3.67;;;1.77;;
12631;SDS011;6381;45.748;12.106;2022-07-10T11:35:20;3.95;;;1.58;;
12631;SDS011;6381;45.748;12.106;2022-07-10T11:37:49;1.30;;;1.20;;
12631;SDS011;6381;45.748;12.106;2022-07-10T11:40:19;3.58;;;1.55;;
12631;SDS011;6381;45.748;12.106;2022-07-10T11:42:52;3.33;;;1.60;;
12631;SDS011;6381;45.748;12.106;2022-07-10T11:45:27;1.95;;;1.50;;
12631;SDS011;6381;45.748;12.106;2022-07-10T11:47:59;1.98;;;1.40;;
12631;SDS011;6381;45.748;12.106;2022-07-10T11:50:33;1.95;;;1.35;;
12631;SDS011;6381;45.748;12.106;2022-07-10T11:53:04;2.47;;;1.50;;
12631;SDS011;6381;45.748;12.106;2022-07-10T11:55:33;4.55;;;1.73;;
12631;SDS011;6381;45.748;12.106;2022-07-10T11:58:16;2.40;;;1.35;;
12631;SDS011;6381;45.748;12.106;2022-07-10T12:00:58;2.20;;;1.50;;
12631;SDS011;6381;45.748;12.106;2022-07-10T12:03:30;3.25;;;1.60;;
12631;SDS011;6381;45.748;12.106;2022-07-10T12:06:03;3.65;;;1.40;;
12631;SDS011;6381;45.748;12.106;2022-07-10T12:08:43;1.98;;;1.50;;
12631;SDS011;6381;45.748;12.106;2022-07-10T12:11:13;2.80;;;1.50;;
12631;SDS011;6381;45.748;12.106;2022-07-10T12:13:45;1.67;;;1.38;;
12631;SDS011;6381;45.748;12.106;2022-07-10T12:16:16;2.10;;;1.52;;
12631;SDS011;6381;45.748;12.106;2022-07-10T12:18:46;2.33;;;1.50;;
12631;SDS011;6381;45.748;12.106;2022-07-10T12:21:17;2.75;;;1.50;;
12631;SDS011;6381;45.748;12.106;2022-07-10T12:23:47;3.60;;;1.50;;
12631;SDS011;6381;45.748;12.106;2022-07-10T12:26:17;2.22;;;1.40;;
12631;SDS011;6381;45.748;12.106;2022-07-10T12:28:51;2.65;;;1.70;;
12631;SDS011;6381;45.748;12.106;2022-07-10T12:31:27;2.88;;;1.60;;
12631;SDS011;6381;45.748;12.106;2022-07-10T12:33:59;3.05;;;1.52;;
12631;SDS011;6381;45.748;12.106;2022-07-10T12:36:42;2.65;;;1.38;;
12631;SDS011;6381;45.748;12.106;2022-07-10T12:39:12;1.80;;;1.48;;
12631;SDS011;6381;45.748;12.106;2022-07-10T12:41:55;1.80;;;1.27;;
12631;SDS011;6381;45.748;12.106;2022-07-10T12:44:32;4.93;;;1.60;;
12631;SDS011;6381;45.748;12.106;2022-07-10T12:47:05;1.92;;;1.50;;
12631;SDS011;6381;45.748;12.106;2022-07-10T12:49:49;1.58;;;1.40;;
12631;SDS011;6381;45.748;12.106;2022-07-10T12:52:21;2.10;;;1.50;;
12631;SDS011;6381;45.748;12.106;2022-07-10T12:55:07;2.13;;;1.65;;
12631;SDS011;6381;45.748;12.106;2022-07-10T12:57:44;2.25;;;1.40;;
12631;SDS011;6381;45.748;12.106;2022-07-10T13:00:16;2.05;;;1.55;;
12631;SDS011;6381;45.748;12.106;2022-07-10T13:02:57;2.85;;;1.60;;
12631;SDS011;6381;45.748;12.106;2022-07-10T13:05:32;2.55;;;1.60;;
12631;SDS011;6381;45.748;12.106;2022-07-10T13:08:07;2.95;;;1.70;;
12631;SDS011;6381;45.748;12.106;2022-07-10T13:10:43;2.13;;;1.52;;
12631;SDS011;6381;45.748;12.106;2022-07-10T13:13:15;2.75;;;1.38;;
12631;SDS011;6381;45.748;12.106;2022-07-10T13:15:48;3.13;;;1.70;;
12631;SDS011;6381;45.748;12.106;2022-07-10T13:18:23;2.15;;;1.50;;
12631;SDS011;6381;45.748;12.106;2022-07-10T13:20:56;1.73;;;1.50;;
12631;SDS011;6381;45.748;12.106;2022-07-10T13:23:30;2.67;;;1.75;;
12631;SDS011;6381;45.748;12.106;2022-07-10T13:26:04;2.13;;;1.40;;
12631;SDS011;6381;45.748;12.106;2022-07-10T13:28:37;1.65;;;1.50;;
12631;SDS011;6381;45.748;12.106;2022-07-10T13:31:11;1.85;;;1.60;;
12631;SDS011;6381;45.748;12.106;2022-07-10T13:33:44;4.45;;;1.70;;
12631;SDS011;6381;45.748;12.106;2022-07-10T13:36:14;1.95;;;1.60;;
12631;SDS011;6381;45.748;12.106;2022-07-10T13:38:49;1.88;;;1.67;;
12631;SDS011;6381;45.748;12.106;2022-07-10T13:41:24;1.63;;;1.52;;
12631;SDS011;6381;45.748;12.106;2022-07-10T13:43:55;1.80;;;1.40;;
12631;SDS011;6381;45.748;12.106;2022-07-10T13:46:30;4.45;;;1.80;;
12631;SDS011;6381;45.748;12.106;2022-07-10T13:49:03;2.30;;;1.40;;
12631;SDS011;6381;45.748;12.106;2022-07-10T13:51:35;2.00;;;1.50;;
12631;SDS011;6381;45.748;12.106;2022-07-10T13:54:15;2.35;;;1.75;;
12631;SDS011;6381;45.748;12.106;2022-07-10T13:56:47;2.00;;;1.60;;
12631;SDS011;6381;45.748;12.106;2022-07-10T13:59:18;2.65;;;1.50;;
12631;SDS011;6381;45.748;12.106;2022-07-10T14:01:51;3.47;;;1.73;;
12631;SDS011;6381;45.748;12.106;2022-07-10T14:04:23;3.60;;;1.88;;
12631;SDS011;6381;45.748;12.106;2022-07-10T14:06:54;1.98;;;1.45;;
12631;SDS011;6381;45.748;12.106;2022-07-10T14:09:25;3.78;;;1.60;;
12631;SDS011;6381;45.748;12.106;2022-07-10T14:11:57;2.17;;;1.67;;
12631;SDS011;6381;45.748;12.106;2022-07-10T14:14:28;4.10;;;1.60;;
12631;SDS011;6381;45.748;12.106;2022-07-10T14:17:00;3.88;;;1.90;;
12631;SDS011;6381;45.748;12.106;2022-07-10T14:19:32;5.80;;;1.60;;
12631;SDS011;6381;45.748;12.106;2022-07-10T14:22:03;5.72;;;1.67;;
12631;SDS011;6381;45.748;12.106;2022-07-10T14:24:35;2.45;;;1.40;;
12631;SDS011;6381;45.748;12.106;2022-07-10T14:27:06;2.28;;;1.48;;
12631;SDS011;6381;45.748;12.106;2022-07-10T14:29:39;2.10;;;1.60;;
12631;SDS011;6381;45.748;12.106;2022-07-10T14:32:10;3.95;;;1.80;;
12631;SDS011;6381;45.748;12.106;2022-07-10T14:34:41;3.10;;;1.70;;
12631;SDS011;6381;45.748;12.106;2022-07-10T14:37:11;5.43;;;2.05;;
12631;SDS011;6381;45.748;12.106;2022-07-10T14:39:41;6.25;;;1.75;;
12631;SDS011;6381;45.748;12.106;2022-07-10T14:42:13;2.75;;;1.60;;
12631;SDS011;6381;45.748;12.106;2022-07-10T14:44:42;3.05;;;1.50;;
12631;SDS011;6381;45.748;12.106;2022-07-10T14:47:11;4.20;;;1.42;;
12631;SDS011;6381;45.748;12.106;2022-07-10T14:49:43;2.22;;;1.60;;
12631;SDS011;6381;45.748;12.106;2022-07-10T14:52:13;5.32;;;1.80;;
12631;SDS011;6381;45.748;12.106;2022-07-10T14:54:44;2.47;;;1.42;;
12631;SDS011;6381;45.748;12.106;2022-07-10T14:57:14;1.85;;;1.60;;
12631;SDS011;6381;45.748;12.106;2022-07-10T14:59:43;3.88;;;1.60;;
12631;SDS011;6381;45.748;12.106;2022-07-10T15:02:13;2.30;;;1.48;;
12631;SDS011;6381;45.748;12.106;2022-07-10T15:04:44;2.10;;;1.40;;
12631;SDS011;6381;45.748;12.106;2022-07-10T15:07:14;3.72;;;1.50;;
12631;SDS011;6381;45.748;12.106;2022-07-10T15:09:45;1.98;;;1.40;;
12631;SDS011;6381;45.748;12.106;2022-07-10T15:12:14;2.65;;;1.35;;
12631;SDS011;6381;45.748;12.106;2022-07-10T15:14:43;2.75;;;1.30;;
12631;SDS011;6381;45.748;12.106;2022-07-10T15:17:13;3.25;;;1.80;;